createdAt,value
2017-11-14T00:01:29.274Z,9.70
2017-11-14T00:03:57.635Z,8.77
2017-11-14T00:06:26.069Z,10.07
2017-11-14T00:08:53.665Z,9.50
2017-11-14T00:11:21.233Z,10.40
2017-11-14T00:13:48.810Z,9.68
2017-11-14T00:16:16.515Z,8.63
2017-11-14T00:18:44.085Z,7.60
2017-11-14T00:21:11.656Z,7.72
2017-11-14T00:23:39.249Z,8.55
2017-11-14T00:26:06.799Z,7.60
2017-11-14T00:28:34.400Z,8.55
2017-11-14T00:31:02.758Z,8.52
2017-11-14T00:33:30.305Z,9.18
2017-11-14T00:35:57.908Z,8.10
2017-11-14T00:38:25.469Z,8.77
2017-11-14T00:40:53.827Z,7.10
2017-11-14T00:43:21.391Z,8.57
2017-11-14T00:45:48.953Z,8.85
2017-11-14T00:48:16.524Z,8.02
2017-11-14T00:50:44.902Z,10.18
2017-11-14T00:53:13.237Z,9.45
2017-11-14T00:55:40.844Z,9.13
2017-11-14T00:58:09.184Z,11.07
2017-11-14T01:00:36.757Z,10.38
2017-11-14T01:03:04.345Z,7.87
2017-11-14T01:05:32.675Z,8.63
2017-11-14T01:08:00.240Z,8.25
2017-11-14T01:10:28.020Z,7.55
2017-11-14T01:12:55.576Z,8.43
2017-11-14T01:15:23.152Z,8.20
2017-11-14T01:17:50.730Z,8.90
2017-11-14T01:20:18.320Z,9.30
2017-11-14T01:22:46.022Z,7.87
2017-11-14T01:25:13.798Z,7.32
2017-11-14T01:27:41.360Z,8.10
2017-11-14T01:30:08.974Z,9.15
2017-11-14T01:32:36.529Z,8.80
2017-11-14T01:35:04.120Z,9.90
2017-11-14T01:37:31.703Z,11.10
2017-11-14T01:39:59.297Z,10.75
2017-11-14T01:42:26.820Z,11.52
2017-11-14T01:44:54.395Z,11.05
2017-11-14T01:47:21.980Z,10.88
2017-11-14T01:49:50.337Z,10.20
2017-11-14T01:52:17.925Z,11.90
2017-11-14T01:54:46.400Z,10.07
2017-11-14T01:57:13.960Z,9.75
2017-11-14T01:59:41.529Z,10.50
2017-11-14T02:02:09.902Z,12.00
2017-11-14T02:04:38.265Z,10.85
2017-11-14T02:07:05.913Z,13.18
2017-11-14T02:09:33.475Z,11.93
2017-11-14T02:12:01.157Z,9.68
2017-11-14T02:14:28.714Z,9.38
2017-11-14T02:16:56.300Z,8.07
2017-11-14T02:19:24.631Z,8.73
2017-11-14T02:21:52.363Z,8.45
2017-11-14T02:24:19.943Z,8.23
2017-11-14T02:26:53.064Z,8.27
2017-11-14T02:29:20.607Z,8.55
2017-11-14T02:31:48.210Z,6.85
2017-11-14T02:34:16.033Z,9.48
2017-11-14T02:36:43.598Z,9.25
2017-11-14T02:39:11.290Z,11.60
2017-11-14T02:41:38.846Z,10.07
2017-11-14T02:44:06.480Z,10.40
2017-11-14T02:46:34.048Z,9.07
2017-11-14T02:49:01.590Z,8.90
2017-11-14T02:51:29.161Z,8.68
2017-11-14T02:53:56.726Z,10.02
2017-11-14T02:56:24.283Z,8.15
2017-11-14T02:58:51.863Z,11.02
2017-11-14T03:01:19.597Z,10.32
2017-11-14T03:03:47.215Z,8.70
2017-11-14T03:06:14.795Z,8.40
2017-11-14T03:08:43.136Z,8.57
2017-11-14T03:11:10.700Z,9.13
2017-11-14T03:13:39.088Z,9.50
2017-11-14T03:16:06.657Z,8.30
2017-11-14T03:18:34.216Z,7.37
2017-11-14T03:21:01.775Z,8.70
2017-11-14T03:23:29.402Z,7.03
2017-11-14T03:25:56.995Z,7.68
2017-11-14T03:28:24.578Z,7.35
2017-11-14T03:30:52.142Z,8.65
2017-11-14T03:33:20.493Z,8.50
2017-11-14T03:35:48.174Z,9.52
2017-11-14T03:38:15.731Z,10.63
2017-11-14T03:40:43.314Z,11.85
2017-11-14T03:43:11.676Z,11.23
2017-11-14T03:45:39.400Z,10.50
2017-11-14T03:48:06.980Z,11.12
2017-11-14T03:50:34.542Z,10.00
2017-11-14T03:53:02.134Z,9.45
2017-11-14T03:55:30.526Z,11.90
2017-11-14T03:57:58.849Z,11.75
2017-11-14T04:00:26.416Z,10.93
2017-11-14T04:02:54.039Z,11.60
2017-11-14T04:05:22.386Z,10.23
2017-11-14T04:07:49.966Z,11.43
2017-11-14T04:10:18.282Z,10.18
2017-11-14T04:12:45.860Z,9.68
2017-11-14T04:15:14.066Z,9.90
2017-11-14T04:17:41.643Z,9.98
2017-11-14T04:20:09.997Z,10.57
2017-11-14T04:22:37.563Z,9.23
2017-11-14T04:25:05.127Z,9.00
2017-11-14T04:27:32.702Z,8.80
2017-11-14T04:30:00.267Z,10.20
2017-11-14T04:32:28.623Z,7.90
2017-11-14T04:34:56.212Z,9.07
2017-11-14T04:37:24.607Z,7.53
2017-11-14T04:39:52.167Z,9.30
2017-11-14T04:42:19.792Z,9.38
2017-11-14T04:44:47.353Z,10.40
2017-11-14T04:47:15.011Z,8.75
2017-11-14T04:49:42.570Z,8.70
2017-11-14T04:52:10.832Z,10.00
2017-11-14T04:54:38.467Z,9.32
2017-11-14T04:57:06.027Z,9.60
2017-11-14T04:59:33.623Z,11.23
2017-11-14T05:02:01.303Z,9.45
2017-11-14T05:04:28.902Z,10.05
2017-11-14T05:06:57.253Z,10.20
2017-11-14T05:09:24.844Z,10.65
2017-11-14T05:11:53.199Z,13.05
2017-11-14T05:14:20.784Z,14.20
2017-11-14T05:16:49.124Z,16.55
2017-11-14T05:19:16.694Z,14.85
2017-11-14T05:21:44.293Z,15.45
2017-11-14T05:24:11.851Z,15.10
2017-11-14T05:26:39.517Z,13.15
2017-11-14T05:29:07.102Z,11.35
2017-11-14T05:31:34.648Z,11.12
2017-11-14T05:34:02.732Z,10.02
2017-11-14T05:36:30.355Z,10.38
2017-11-14T05:38:58.692Z,11.07
2017-11-14T05:41:26.342Z,12.80
2017-11-14T05:43:54.735Z,10.85
2017-11-14T05:46:22.303Z,10.57
2017-11-14T05:48:49.951Z,13.00
2017-11-14T05:51:18.361Z,13.77
2017-11-14T05:53:46.751Z,17.98
2017-11-14T05:56:14.319Z,18.85
2017-11-14T05:58:41.937Z,17.62
2017-11-14T06:01:10.274Z,20.75
2017-11-14T06:03:38.639Z,19.50
2017-11-14T06:06:06.214Z,19.17
2017-11-14T06:08:34.568Z,17.75
2017-11-14T06:11:02.167Z,18.33
2017-11-14T06:13:30.519Z,16.60
2017-11-14T06:15:58.095Z,13.50
2017-11-14T06:18:26.441Z,15.20
2017-11-14T06:20:54.090Z,14.45
2017-11-14T06:23:22.491Z,14.93
2017-11-14T06:25:50.907Z,15.32
2017-11-14T06:28:18.494Z,20.62
2017-11-14T06:30:46.067Z,20.90
2017-11-14T06:33:14.476Z,21.12
2017-11-14T06:35:42.809Z,18.80
2017-11-14T06:38:10.414Z,18.90
2017-11-14T06:40:38.760Z,21.80
2017-11-14T06:43:06.338Z,19.83
2017-11-14T06:45:33.925Z,20.60
2017-11-14T06:48:02.279Z,17.83
2017-11-14T06:50:29.844Z,18.10
2017-11-14T06:52:58.186Z,16.12
2017-11-14T06:55:25.764Z,16.50
2017-11-14T06:57:53.353Z,17.30
2017-11-14T07:00:20.975Z,18.05
2017-11-14T07:02:48.578Z,17.30
2017-11-14T07:05:16.147Z,15.02
2017-11-14T07:07:44.481Z,15.38
2017-11-14T07:10:12.075Z,15.27
2017-11-14T07:12:40.414Z,15.00
2017-11-14T07:15:07.987Z,14.02
2017-11-14T07:17:35.543Z,14.57
2017-11-14T07:20:03.240Z,13.48
2017-11-14T07:22:30.816Z,13.07
2017-11-14T07:24:58.413Z,14.25
2017-11-14T07:27:26.005Z,12.82
2017-11-14T07:29:53.614Z,12.57
2017-11-14T07:32:21.946Z,11.82
2017-11-14T07:34:49.541Z,14.13
2017-11-14T07:37:17.129Z,13.05
2017-11-14T07:39:44.706Z,10.90
2017-11-14T07:42:12.348Z,11.20
2017-11-14T07:44:40.191Z,13.35
2017-11-14T07:47:08.546Z,10.77
2017-11-14T07:49:36.142Z,12.52
2017-11-14T07:52:04.505Z,10.73
2017-11-14T07:54:32.108Z,9.73
2017-11-14T07:56:59.734Z,10.27
2017-11-14T07:59:27.303Z,11.88
2017-11-14T08:01:55.647Z,11.15
2017-11-14T08:04:23.251Z,9.93
2017-11-14T08:06:51.791Z,10.43
2017-11-14T08:09:19.603Z,9.30
2017-11-14T08:11:48.138Z,10.60
2017-11-14T08:14:16.912Z,11.25
2017-11-14T08:16:45.706Z,8.45
2017-11-14T08:19:14.271Z,11.32
2017-11-14T08:21:42.108Z,11.90
2017-11-14T08:24:09.794Z,10.95
2017-11-14T08:26:37.691Z,10.32
2017-11-14T08:29:05.659Z,9.05
2017-11-14T08:31:33.542Z,9.40
2017-11-14T08:34:01.202Z,9.63
2017-11-14T08:36:29.167Z,8.20
2017-11-14T08:38:56.994Z,8.55
2017-11-14T08:41:25.660Z,10.27
2017-11-14T08:43:54.292Z,8.50
2017-11-14T08:46:22.190Z,9.23
2017-11-14T08:48:50.677Z,8.32
2017-11-14T08:51:18.394Z,7.82
2017-11-14T08:53:46.078Z,7.62
2017-11-14T08:56:13.794Z,8.65
2017-11-14T08:58:41.426Z,8.65
2017-11-14T09:01:09.048Z,9.20
2017-11-14T09:03:37.434Z,7.68
2017-11-14T09:06:05.982Z,8.40
2017-11-14T09:08:33.639Z,9.70
2017-11-14T09:11:01.377Z,8.38
2017-11-14T09:13:29.196Z,7.25
2017-11-14T09:15:57.764Z,8.23
2017-11-14T09:18:26.429Z,8.77
2017-11-14T09:20:54.255Z,8.05
2017-11-14T09:23:21.886Z,8.75
2017-11-14T09:25:49.569Z,7.62
2017-11-14T09:28:17.930Z,6.90
2017-11-14T09:30:45.613Z,6.83
2017-11-14T09:33:14.038Z,7.50
2017-11-14T09:35:41.757Z,6.90
2017-11-14T09:38:09.503Z,7.00
2017-11-14T09:40:38.054Z,6.83
2017-11-14T09:43:05.702Z,6.27
2017-11-14T09:45:33.493Z,5.80
2017-11-14T09:48:01.147Z,5.70
2017-11-14T09:50:32.488Z,6.60
2017-11-14T09:53:00.075Z,5.90
2017-11-14T09:55:27.670Z,6.63
2017-11-14T09:57:55.232Z,5.37
2017-11-14T10:00:22.889Z,5.87
2017-11-14T10:02:50.492Z,5.87
2017-11-14T10:05:19.190Z,5.23
2017-11-14T10:07:46.851Z,6.17
2017-11-14T10:10:15.670Z,6.00
2017-11-14T10:12:43.833Z,6.50
2017-11-14T10:15:12.110Z,5.90
2017-11-14T10:17:40.389Z,5.10
2017-11-14T10:20:08.462Z,5.70
2017-11-14T10:22:37.139Z,5.20
2017-11-14T10:25:04.948Z,5.80
2017-11-14T10:27:33.542Z,4.87
2017-11-14T10:30:02.052Z,5.33
2017-11-14T10:32:29.686Z,5.50
2017-11-14T10:34:57.331Z,5.70
2017-11-14T10:37:24.949Z,5.47
2017-11-14T10:39:52.667Z,5.90
2017-11-14T10:42:20.448Z,4.00
2017-11-14T10:44:48.186Z,4.47
2017-11-14T10:47:15.924Z,4.67
2017-11-14T10:49:43.680Z,4.87
2017-11-14T10:52:11.340Z,3.87
2017-11-14T10:54:39.421Z,4.57
2017-11-14T10:57:07.123Z,5.70
2017-11-14T10:59:35.359Z,4.10
2017-11-14T11:02:03.151Z,4.50
2017-11-14T11:04:31.134Z,4.50
2017-11-14T11:06:59.127Z,4.33
2017-11-14T11:09:28.883Z,4.83
2017-11-14T11:11:56.888Z,4.60
2017-11-14T11:14:24.542Z,3.97
2017-11-14T11:16:52.988Z,4.90
2017-11-14T11:19:20.598Z,4.87
2017-11-14T11:21:49.031Z,5.33
2017-11-14T11:24:17.592Z,4.50
2017-11-14T11:26:45.588Z,6.83
2017-11-14T11:29:13.372Z,4.13
2017-11-14T11:31:42.123Z,4.73
2017-11-14T11:34:10.121Z,4.00
2017-11-14T11:36:38.775Z,3.50
2017-11-14T11:39:06.734Z,4.10
2017-11-14T11:41:34.428Z,3.80
2017-11-14T11:44:02.816Z,5.23
2017-11-14T11:46:30.406Z,3.70
2017-11-14T11:48:58.785Z,3.80
2017-11-14T11:51:27.248Z,2.73
2017-11-14T11:53:54.864Z,4.53
2017-11-14T11:56:23.474Z,3.20
2017-11-14T11:58:51.098Z,2.30
2017-11-14T12:01:19.465Z,2.73
2017-11-14T12:03:47.828Z,2.40
2017-11-14T12:06:15.369Z,3.20
2017-11-14T12:08:42.937Z,3.40
2017-11-14T12:11:10.516Z,3.50
2017-11-14T12:13:38.868Z,3.10
2017-11-14T12:16:07.324Z,3.77
2017-11-14T12:18:34.914Z,3.93
2017-11-14T12:21:02.603Z,3.53
2017-11-14T12:23:30.201Z,3.10
2017-11-14T12:25:57.780Z,3.30
2017-11-14T12:28:25.347Z,3.63
2017-11-14T12:30:52.901Z,3.37
2017-11-14T12:33:20.495Z,2.70
2017-11-14T12:35:48.843Z,3.27
2017-11-14T12:38:16.434Z,3.30
2017-11-14T12:40:44.054Z,2.53
2017-11-14T12:43:11.643Z,3.13
2017-11-14T12:45:39.251Z,4.40
2017-11-14T12:48:06.864Z,3.10
2017-11-14T12:50:34.507Z,3.37
2017-11-14T12:53:02.176Z,3.43
2017-11-14T12:55:30.393Z,3.73
2017-11-14T12:57:57.999Z,3.83
2017-11-14T13:00:25.643Z,2.90
2017-11-14T13:02:54.014Z,3.27
2017-11-14T13:05:22.361Z,2.63
2017-11-14T13:07:50.821Z,3.50
2017-11-14T13:10:18.466Z,3.43
2017-11-14T13:12:46.223Z,2.90
2017-11-14T13:15:14.578Z,2.60
2017-11-14T13:17:42.218Z,2.60
2017-11-14T13:20:09.839Z,3.03
2017-11-14T13:22:38.237Z,3.03
2017-11-14T13:25:05.900Z,3.07
2017-11-14T13:27:33.594Z,2.60
2017-11-14T13:30:01.225Z,3.37
2017-11-14T13:32:28.881Z,3.60
2017-11-14T13:34:57.235Z,2.97
2017-11-14T13:37:24.845Z,4.00
2017-11-14T13:39:52.493Z,2.60
2017-11-14T13:42:20.202Z,3.73
2017-11-14T13:44:47.888Z,3.60
2017-11-14T13:47:15.624Z,3.17
2017-11-14T13:49:43.192Z,2.77
2017-11-14T13:52:10.854Z,3.90
2017-11-14T13:54:38.538Z,3.20
2017-11-14T13:57:06.161Z,3.00
2017-11-14T13:59:35.570Z,3.20
2017-11-14T14:02:03.143Z,4.57
2017-11-14T14:04:30.770Z,3.43
2017-11-14T14:06:58.450Z,2.83
2017-11-14T14:09:26.054Z,3.63
2017-11-14T14:11:53.735Z,3.40
2017-11-14T14:14:21.349Z,4.40
2017-11-14T14:16:48.941Z,3.60
2017-11-14T14:19:16.586Z,3.07
2017-11-14T14:21:44.188Z,3.30
2017-11-14T14:24:11.945Z,3.00
2017-11-14T14:26:39.736Z,3.83
2017-11-14T14:29:08.194Z,3.00
2017-11-14T14:31:35.853Z,3.80
2017-11-14T14:34:03.431Z,4.80
2017-11-14T14:36:31.826Z,3.37
2017-11-14T14:39:00.233Z,2.67
2017-11-14T14:41:27.836Z,4.57
2017-11-14T14:43:55.460Z,3.30
2017-11-14T14:46:23.047Z,3.13
2017-11-14T14:48:50.607Z,2.97
2017-11-14T14:51:18.179Z,3.13
2017-11-14T14:53:46.089Z,2.80
2017-11-14T14:56:14.431Z,3.60
2017-11-14T14:58:41.983Z,2.80
2017-11-14T15:01:09.603Z,4.03
2017-11-14T15:03:37.994Z,4.20
2017-11-14T15:06:05.801Z,3.73
2017-11-14T15:08:33.434Z,2.90
2017-11-14T15:11:01.008Z,4.33
2017-11-14T15:13:28.595Z,2.53
2017-11-14T15:15:56.338Z,3.43
2017-11-14T15:18:23.925Z,3.50
2017-11-14T15:20:51.505Z,3.37
2017-11-14T15:23:19.238Z,3.20
2017-11-14T15:25:46.993Z,3.20
2017-11-14T15:28:14.729Z,4.20
2017-11-14T15:30:42.323Z,3.10
2017-11-14T15:33:10.015Z,3.17
2017-11-14T15:35:37.560Z,2.70
2017-11-14T15:38:05.167Z,4.10
2017-11-14T15:40:33.556Z,3.23
2017-11-14T15:43:01.881Z,3.87
2017-11-14T15:45:29.479Z,2.70
2017-11-14T15:47:57.227Z,3.30
2017-11-14T15:50:25.757Z,3.90
2017-11-14T15:52:53.363Z,3.60
2017-11-14T15:55:20.925Z,3.00
2017-11-14T15:57:48.631Z,3.10
2017-11-14T16:00:17.033Z,3.67
2017-11-14T16:02:44.642Z,3.47
2017-11-14T16:05:13.211Z,4.03
2017-11-14T16:07:40.904Z,3.83
2017-11-14T16:10:09.315Z,2.93
2017-11-14T16:12:37.635Z,4.10
2017-11-14T16:15:05.292Z,2.87
2017-11-14T16:17:32.880Z,2.83
2017-11-14T16:20:00.456Z,2.90
2017-11-14T16:22:28.873Z,2.80
2017-11-14T16:24:57.281Z,2.93
2017-11-14T16:27:24.846Z,3.43
2017-11-14T16:29:52.436Z,2.90
2017-11-14T16:32:20.057Z,3.67
2017-11-14T16:34:47.647Z,3.20
2017-11-14T16:37:15.241Z,3.20
2017-11-14T16:39:42.815Z,3.87
2017-11-14T16:42:10.616Z,3.83
2017-11-14T16:44:38.217Z,4.27
2017-11-14T16:47:05.768Z,4.13
2017-11-14T16:49:33.537Z,4.40
2017-11-14T16:52:01.134Z,4.23
2017-11-14T16:54:29.507Z,4.40
2017-11-14T16:56:57.085Z,3.10
2017-11-14T16:59:31.562Z,3.77
2017-11-14T17:01:59.200Z,3.83
2017-11-14T17:04:26.765Z,3.70
2017-11-14T17:06:54.352Z,3.90
2017-11-14T17:09:21.903Z,3.93
2017-11-14T17:11:49.562Z,4.20
2017-11-14T17:14:17.169Z,3.27
2017-11-14T17:16:44.884Z,4.50
2017-11-14T17:19:12.608Z,3.73
2017-11-14T17:21:40.318Z,4.70
2017-11-14T17:24:07.896Z,3.33
2017-11-14T17:26:35.477Z,3.30
2017-11-14T17:29:03.042Z,4.33
2017-11-14T17:31:31.384Z,3.93
2017-11-14T17:33:59.060Z,3.90
2017-11-14T17:36:26.671Z,4.37
2017-11-14T17:38:55.772Z,3.63
2017-11-14T17:41:23.347Z,4.10
2017-11-14T17:43:51.645Z,3.60
2017-11-14T17:46:19.235Z,3.27
2017-11-14T17:48:46.849Z,3.80
2017-11-14T17:51:14.548Z,5.07
2017-11-14T17:53:42.127Z,3.70
2017-11-14T17:56:09.687Z,3.83
2017-11-14T17:58:37.281Z,3.73
2017-11-14T18:01:05.636Z,3.37
2017-11-14T18:03:33.516Z,4.20
2017-11-14T18:06:01.288Z,4.30
2017-11-14T18:08:28.857Z,3.83
2017-11-14T18:10:57.235Z,4.50
2017-11-14T18:13:24.848Z,4.97
2017-11-14T18:15:52.409Z,4.30
2017-11-14T18:18:20.003Z,4.23
2017-11-14T18:20:47.566Z,4.37
2017-11-14T18:23:15.162Z,5.00
2017-11-14T18:25:43.547Z,4.67
2017-11-14T18:28:11.843Z,3.80
2017-11-14T18:30:40.249Z,4.27
2017-11-14T18:33:07.994Z,3.50
2017-11-14T18:35:35.736Z,4.80
2017-11-14T18:38:04.215Z,4.40
2017-11-14T18:40:32.734Z,4.50
2017-11-14T18:43:00.733Z,3.70
2017-11-14T18:45:28.325Z,5.17
2017-11-14T18:47:56.770Z,4.23
2017-11-14T18:50:24.382Z,4.20
2017-11-14T18:52:52.884Z,4.50
2017-11-14T18:55:20.696Z,4.33
2017-11-14T18:57:48.448Z,5.20
2017-11-14T19:00:16.086Z,4.00
2017-11-14T19:02:43.732Z,5.57
2017-11-14T19:05:11.614Z,4.70
2017-11-14T19:07:39.218Z,4.30
2017-11-14T19:10:06.827Z,3.87
2017-11-14T19:12:35.653Z,4.50
2017-11-14T19:15:03.394Z,4.73
2017-11-14T19:17:31.015Z,5.90
2017-11-14T19:19:58.697Z,4.90
2017-11-14T19:22:26.351Z,3.53
2017-11-14T19:24:54.023Z,5.10
2017-11-14T19:27:21.656Z,5.40
2017-11-14T19:29:49.231Z,4.47
2017-11-14T19:32:17.660Z,4.00
2017-11-14T19:34:45.261Z,4.50
2017-11-14T19:37:13.099Z,5.60
2017-11-14T19:39:40.883Z,4.80
2017-11-14T19:42:08.619Z,5.13
2017-11-14T19:44:36.248Z,4.90
2017-11-14T19:47:04.680Z,6.73
2017-11-14T19:49:32.247Z,4.93
2017-11-14T19:52:00.036Z,5.40
2017-11-14T19:54:27.618Z,7.27
2017-11-14T19:56:56.029Z,6.67
2017-11-14T19:59:23.569Z,7.10
2017-11-14T20:01:51.933Z,7.10
2017-11-14T20:04:20.476Z,6.93
2017-11-14T20:06:48.088Z,7.23
2017-11-14T20:09:15.865Z,6.90
2017-11-14T20:11:43.837Z,6.90
2017-11-14T20:14:12.216Z,8.43
2017-11-14T20:16:39.994Z,8.33
2017-11-14T20:19:08.530Z,7.80
2017-11-14T20:21:37.104Z,8.60
2017-11-14T20:24:05.823Z,6.87
2017-11-14T20:26:34.232Z,7.97
2017-11-14T20:29:02.679Z,7.27
2017-11-14T20:31:30.423Z,8.97
2017-11-14T20:33:58.324Z,7.93
2017-11-14T20:36:26.788Z,7.03
2017-11-14T20:38:54.682Z,7.80
2017-11-14T20:41:22.465Z,7.67
2017-11-14T20:43:51.011Z,8.17
2017-11-14T20:46:19.647Z,9.43
2017-11-14T20:48:48.355Z,8.23
2017-11-14T20:51:16.008Z,8.10
2017-11-14T20:53:43.594Z,8.20
2017-11-14T20:56:11.233Z,9.97
2017-11-14T20:58:39.483Z,9.57
2017-11-14T21:01:07.172Z,9.20
2017-11-14T21:03:34.838Z,10.18
2017-11-14T21:06:02.596Z,11.38
2017-11-14T21:08:32.400Z,11.43
2017-11-14T21:11:00.866Z,11.63
2017-11-14T21:13:29.262Z,11.57
2017-11-14T21:15:57.864Z,11.13
2017-11-14T21:18:25.492Z,12.32
2017-11-14T21:20:54.298Z,12.50
2017-11-14T21:23:21.982Z,12.95
2017-11-14T21:25:49.879Z,13.80
2017-11-14T21:28:17.726Z,14.10
2017-11-14T21:30:46.324Z,13.82
2017-11-14T21:33:13.964Z,13.75
2017-11-14T21:35:41.587Z,15.90
2017-11-14T21:38:09.246Z,14.57
2017-11-14T21:40:36.834Z,16.00
2017-11-14T21:43:05.217Z,15.52
2017-11-14T21:45:33.847Z,15.52
2017-11-14T21:48:02.114Z,14.60
2017-11-14T21:50:29.767Z,14.57
2017-11-14T21:52:57.540Z,14.80
2017-11-14T21:55:25.176Z,14.20
2017-11-14T21:57:53.571Z,15.23
2017-11-14T22:00:21.217Z,14.60
2017-11-14T22:02:49.601Z,14.45
2017-11-14T22:05:17.973Z,14.35
2017-11-14T22:07:45.551Z,14.40
2017-11-14T22:10:14.011Z,13.80
2017-11-14T22:12:42.046Z,14.05
2017-11-14T22:15:09.621Z,13.48
2017-11-14T22:17:37.366Z,13.50
2017-11-14T22:20:04.969Z,13.60
2017-11-14T22:22:32.644Z,14.18
2017-11-14T22:25:00.282Z,13.90
2017-11-14T22:27:27.880Z,13.10
2017-11-14T22:29:55.470Z,12.95
2017-11-14T22:32:23.068Z,12.88
2017-11-14T22:34:50.625Z,12.05
2017-11-14T22:37:18.200Z,12.95
2017-11-14T22:39:45.826Z,11.82
2017-11-14T22:42:13.403Z,12.70
2017-11-14T22:44:41.032Z,11.98
2017-11-14T22:47:08.664Z,12.23
2017-11-14T22:49:36.245Z,12.37
2017-11-14T22:52:04.587Z,12.90
2017-11-14T22:54:32.200Z,12.93
2017-11-14T22:57:00.557Z,13.88
2017-11-14T22:59:28.133Z,14.43
2017-11-14T23:01:56.492Z,12.77
2017-11-14T23:04:24.176Z,11.68
2017-11-14T23:06:52.538Z,13.45
2017-11-14T23:09:20.142Z,12.50
2017-11-14T23:11:47.742Z,12.75
2017-11-14T23:14:15.330Z,13.05
2017-11-14T23:16:44.370Z,12.25
2017-11-14T23:19:11.960Z,12.88
2017-11-14T23:21:39.539Z,12.05
2017-11-14T23:24:07.161Z,11.80
2017-11-14T23:26:34.745Z,11.60
2017-11-14T23:29:02.370Z,12.20
2017-11-14T23:31:30.062Z,12.27
2017-11-14T23:33:58.249Z,11.48
2017-11-14T23:36:25.851Z,11.20
2017-11-14T23:38:54.231Z,10.68
2017-11-14T23:41:21.828Z,12.88
2017-11-14T23:43:49.442Z,12.10
2017-11-14T23:46:17.030Z,12.32
2017-11-14T23:48:44.604Z,11.07
2017-11-14T23:51:12.196Z,11.20
2017-11-14T23:53:41.405Z,12.00
2017-11-14T23:56:08.959Z,11.12
2017-11-14T23:58:36.556Z,10.90
